CYYU

Kapuskasing Airport

Kapuskasing, Ontario, Canada
TAF CYYU 141940Z 1420/1508 19012G22KT P6SM BKN040 TEMPO 1420/1424 21/2SM -SHSN FM150000 29012G22KT P6SM FEW015 BKN030 TEMPO 1500/1508 2SM -SHSN OVC015 RMK NXT FCST BY 150200Z
Issued Valid From Valid To
Dec-14 @ 19:40 UTC
(3 hours ago)
Dec-14 @ 20:00 UTC
(2 hours ago)
Dec-15 @ 08:00 UTC
(in 10 hours)
Dec-14 @ 20:00 to Dec-15 @ 00:00
TAF CYYU 141940Z 1420/1508 19012G22KT P6SM BKN040
Wind Visibility Clouds
190° at 12 knots
 Gusting to 22 knots
Greater than 6 miles
  • Broken at 4,000' AGL
Temporary Dec-14 @ 20:00 to Dec-15 @ 00:00
TEMPO 1420/1424 21/2SM -SHSN
Visibility Conditions
2 1/2 miles
  • Light Snow
Temporary Dec-15 @ 00:00 to Dec-15 @ 08:00
TEMPO 1500/1508 2SM -SHSN OVC015 RMK NXT FCST BY 150200Z
Visibility Clouds Conditions
2 miles
  • Overcast at 1,500' AGL
  • Light Snow
From Dec-15 @ 00:00 to Dec-15 @ 08:00
FM150000 29012G22KT P6SM FEW015 BKN030
Wind Visibility Clouds
290° at 12 knots
 Gusting to 22 knots
Greater than 6 miles
  • Few at 1,500' AGL
  • Broken at 3,000' AGL
TAF CYYU 141940Z 1420/1508 19012G22KT P6SM BKN040 TEMPO 1420/1424 21/2SM -SHSN FM150000 29012G22KT P6SM FEW015 BKN030 TEMPO 1500/1508 2SM -SHSN OVC015 RMK NXT FCST BY 150200Z
Issued Dec-14 @ 19:40 UTC
(3 hours ago)
Valid From Dec-14 @ 20:00 UTC
(2 hours ago)
Valid To Dec-15 @ 08:00 UTC
(in 10 hours)
Dec-14 @ 20:00 - Dec-15 @ 00:00
Wind Visibility
190° at 12 knots
 Gusting to 22 knots
Greater than 6 miles
Clouds
  • Broken at 4,000' AGL
Temporary Dec-14 @ 20:00 - Dec-15 @ 00:00
Conditions
  • Light Snow
Temporary Dec-15 @ 00:00 - Dec-15 @ 08:00
Clouds
  • Overcast at 1,500' AGL
Conditions
  • Light Snow
From Dec-15 @ 00:00 - Dec-15 @ 08:00
Wind Visibility
290° at 12 knots
 Gusting to 22 knots
Greater than 6 miles
Clouds
  • Few at 1,500' AGL
  • Broken at 3,000' AGL